LEPALEBZ

Guest
Details From LEPA - Palma De Mallorca
To LEBZ - Talavera La Real
Flight Number -
Tags generated
Created
Modified
Stats Distance 478 nm / 886 km
Max Altitude 34,000 ft / 10,363 m
Waypoints 15
Social Downloads 3
Likes 0
Share

Download

Looking for another format? Having issues loading an existing format? Contact us
Advertisement - Login to hide

Notes

Basic altitude profile: - Ascent Rate: 2500ft/min - Ascent Speed: 250kts - Cruise Altitude: 35000ft - Cruise Speed: 420kts - Descent Rate: 1500ft/min - Descent Speed: 250kts Options: - Use NATs: yes - Use PACOTS: yes - Use low airways: yes - Use high airways: no

Route

LEPA TURIA A33 CLS W107 PDT VISON G7 TLD H90 ROLDO LEBZ

ID Type Via Altitude (ft/m) Position (lat/lon) Dist (leg/tot) Name
O LEPA APT - 0 / 0 39.55254 / 2.73496 - / 0 nm Palma De Mallorca
TURIA FIX - 26,500 / 8,077 39.47178 / 1.13389 74 / 74 nm
RIKOS FIX A33 (AWY-LO) 24,500 / 7,468 39.48144 / 0.33544 37 / 111 nm
FERAS FIX A33 (AWY-LO) 24,500 / 7,468 39.48390 / -0.00700 15 / 127 nm
VLC VOR A33 (AWY-LO) 24,500 / 7,468 39.48565 / -0.48304 22 / 149 nm VALENCIA VOR-DME
CLS VOR A33 (AWY-LO) 24,500 / 7,468 39.70717 / -0.98632 26 / 176 nm CALLES VOR-DME
MINGU FIX W107 (AWY-LO) 24,500 / 7,468 39.82616 / -1.48082 23 / 200 nm
NANDO FIX W107 (AWY-LO) 24,500 / 7,468 39.98885 / -2.17456 33 / 233 nm
PDT VOR W107 (AWY-LO) 24,500 / 7,468 40.25291 / -3.34803 56 / 289 nm PERALES VOR-DME
VISON FIX - 34,000 / 10,363 40.16102 / -3.50247 8 / 298 nm
GOTOR FIX G7 (AWY-LO) 24,500 / 7,468 40.11077 / -3.72450 10 / 309 nm
TLD VOR G7 (AWY-LO) 24,500 / 7,468 39.96946 / -4.33747 29 / 338 nm TOLEDO VOR-DME
RUKER FIX H90 (AWY-LO) 24,500 / 7,468 39.94916 / -4.61111 12 / 351 nm
ROLDO FIX H90 (AWY-LO) 16,900 / 5,151 39.87583 / -5.54469 43 / 394 nm
O LEBZ APT - 0 / 0 38.89127 / -6.82126 83 / 478 nm Talavera La Real

Altitude Profile

Advertisement - Login to hide

Weather


0- 5 10 15 20 25 30 35+ Temperature / °C

Clouds and Precipitation
Forecast for 2021-07-26 12:00 UTC. Updated 11 hours ago

Ground ~20,000 ft ~40,000 ft Winds

LEPA

Details ICAO LEPA (PMI)
Name Palma de Mallorca
Region Spain
Timezone Europe/Madrid (UTC+2.0)
Stats Elevation 24 ft / 7 m (AMSL)
Location 39.551700° 2.738890°
Runways 2
Magnetic Variation 1.378° E

METAR

LEPA 262000Z 06006KT CAVOK 25/19 Q1014 NOSIG

Decode

TAF

TAF LEPA 261700Z 2618/2718 06010KT 9999 FEW020 TX31/2712Z TN20/2706Z BECMG 2620/2622 02005KT BECMG 2707/2710 20010KT

Decode

Departure Runways

ID Width Length Bearing (true/mag) Surface Threshold Overrun Markings Lighting
06L 148 ft / 45 m 10,713 ft / 3,265 m 58.46° / 57.08° ASPHALT 0 ft / 0 m 256 ft / 78 m PREC-APP CENTERLINE EDGE THRESHOLD ALSF-I
06R 148 ft / 45 m 9,829 ft / 2,996 m 58.48° / 57.11° ASPHALT 1,332 ft / 406 m 0 ft / 0 m PREC-APP CENTERLINE EDGE THRESHOLD REIL-OMNI
24L 148 ft / 45 m 9,829 ft / 2,996 m 238.50° / 237.12° ASPHALT 0 ft / 0 m 0 ft / 0 m PREC-APP CENTERLINE EDGE THRESHOLD ALSF-II TDZ
24R 148 ft / 45 m 10,713 ft / 3,265 m 238.48° / 237.10° ASPHALT 226 ft / 69 m 0 ft / 0 m PREC-APP CENTERLINE EDGE THRESHOLD ALSF-I REIL-OMNI

LEBZ

Details ICAO LEBZ (BJZ)
Name Badajoz-Talavera La Real
Region Spain
Timezone Europe/Madrid (UTC+2.0)
Stats Elevation 607 ft / 185 m (AMSL)
Location 38.891300° -6.821240°
Runways 1
Magnetic Variation 1.181° W

METAR

LEBZ 262000Z 27007KT CAVOK 28/13 Q1013

Decode

TAF

TAF LEBZ 261400Z 2615/2715 28008KT CAVOK TX37/2715Z TN17/2706Z= TAF LECO 261400Z 2615/2715 35005KT 9999 SCT015 SCT040 TX22/2615Z TN16/2703Z TEMPO 2621/2708 3000 -RA BR BKN010 PROB30 TEMPO 2622/2707 0800 BCFG BKN002 PROB30 TEMPO 2709/2715 RA BKN010

Decode

Destination Runways

ID Width Length Bearing (true/mag) Surface Threshold Overrun Markings Lighting
13 198 ft / 60 m 9,370 ft / 2,856 m 125.71° / 126.89° ASPHALT 0 ft / 0 m 984 ft / 300 m PREC-APP CENTERLINE EDGE THRESHOLD MALS REIL-OMNI
31 198 ft / 60 m 9,370 ft / 2,856 m 305.72° / 306.90° ASPHALT 0 ft / 0 m 961 ft / 293 m PREC-APP CENTERLINE EDGE THRESHOLD MALS REIL-OMNI

Approach Navaids

Runway Type Ident Frequency Range Bearing (true/mag) Slope Elevation
31 GS ITL 110.50 MHz 10 nm / 19 km 306.47° / 307.65 ° 3.00° 609 ft / 186 m (AMSL)
31 MM MM - - 305.73° / 306.91 ° - 609 ft / 186 m (AMSL)
31 OM OM - - 305.73° / 306.91 ° - 609 ft / 186 m (AMSL)
31 DME ITL 110.50 MHz 18 nm / 33 km - - 639 ft / 195 m (AMSL)
31 LOC-ILS ITL 110.50 MHz 18 nm / 33 km 305.70° / 306.89 ° - 609 ft / 186 m (AMSL)

Popular Alternatives